Volk Field Camp Douglas US
ICAO: KVOK
IATA: VOK
Category: Medium
Scheduled Services: No

Elevation: 912 ft
TransAlt. 18000 ft.

Airport Communications:
APP/DEP:135.25
CTAF:127.5
GND:121.9
HARDWOOD RANGE:132.025
SHEBOYGAN RANGE:26.04
PTD:37.22
TWR:127.5

KVOK Zoom In..

If you have problems with the map follow the link
https://www.worldairports.se/pages/airport.php?
ICAO=KVOK

Runways:

(A) RW 09 length 9000 ft width 150 ft
---- / hdg 89

(B) RW 27 length 9000 ft width 150 ft
ILS 108.50 / hdg 269

Location; KVOK
Day. 14 / Time. 10.56 Zulu
* Altimeter: 30.49
* Temperature: -13° c. -8.6°f.
* Wind from: 120° Speed 03 kn.
Dewpoint: -14° c.
Visibility: 10 Statute Miles.
Clouds: Clear (automated report).

KVOK 141056Z AUTO 12003KT 10SM CLR M13/M14 A3049 RMK AO2 SLP349 T11271139


Wind From 120°
Speed 03 kn.

 
 
jpsmedia.com for Web Design worldairports.se 2018   terms of use